Time;durP1;ratioP1;P1;durP2;ratioP2;P2;SDS_P1;SDS_P2;PMS_P1;PMS_P2;Temp;Humidity;BMP_temperature;BMP_pressure;BME280_temperature;BME280_humidity;BME280_pressure;Samples;Min_cycle;Max_cycle;Signal;HPM_P1;HPM_P2
2021/12/27 00:00:47;;;;;;;63.13;35.87;;;;;;;3.48;92.36;96873.31;5068491;28;20232;-63
2021/12/27 00:03:15;;;;;;;60.80;35.77;;;;;;;3.50;92.20;96865.59;5068004;28;20251;-67
2021/12/27 00:05:42;;;;;;;58.70;33.43;;;;;;;3.46;91.96;96863.97;5068395;28;20212;-63
2021/12/27 00:08:09;;;;;;;54.03;34.33;;;;;;;3.48;91.43;96863.06;5067448;28;20213;-65
2021/12/27 00:10:37;;;;;;;54.27;34.50;;;;;;;3.46;91.56;96862.25;5068886;28;20711;-59
2021/12/27 00:13:06;;;;;;;54.93;33.00;;;;;;;3.45;91.47;96862.28;5067497;28;20714;-61
2021/12/27 00:15:34;;;;;;;54.57;34.10;;;;;;;3.42;90.91;96875.97;5068179;28;20201;-59
2021/12/27 00:18:01;;;;;;;61.07;34.23;;;;;;;3.47;90.76;96884.41;5067620;28;20673;-68
2021/12/27 00:20:28;;;;;;;61.70;35.63;;;;;;;3.39;91.10;96878.59;5067523;28;20228;-64
2021/12/27 00:22:55;;;;;;;64.10;36.10;;;;;;;3.32;91.50;96881.31;5068002;28;20181;-62
2021/12/27 00:25:22;;;;;;;62.37;34.87;;;;;;;3.41;91.07;96881.97;5067335;28;20777;-65
2021/12/27 00:27:49;;;;;;;59.03;33.77;;;;;;;3.24;90.97;96882.31;5068317;28;20609;-64
2021/12/27 00:30:18;;;;;;;59.77;36.10;;;;;;;3.23;91.04;96890.03;5067476;28;20254;-62
2021/12/27 00:32:45;;;;;;;51.20;30.50;;;;;;;3.22;91.90;96878.94;5067951;28;20721;-63
2021/12/27 00:35:14;;;;;;;56.60;31.50;;;;;;;3.21;92.10;96884.91;5067537;28;20234;-67
2021/12/27 00:37:41;;;;;;;56.57;33.97;;;;;;;3.23;92.66;96877.22;5067220;28;20234;-67
2021/12/27 00:40:11;;;;;;;61.03;34.90;;;;;;;3.14;92.58;96864.59;5067834;28;20291;-67
2021/12/27 00:42:38;;;;;;;53.67;31.43;;;;;;;3.18;92.63;96877.31;5067154;28;20201;-68
2021/12/27 00:45:06;;;;;;;55.47;30.43;;;;;;;3.21;92.20;96884.09;5068135;28;20194;-66
2021/12/27 00:47:34;;;;;;;46.87;29.37;;;;;;;3.24;92.43;96878.91;5067179;28;20222;-67
2021/12/27 00:50:02;;;;;;;50.00;30.07;;;;;;;3.19;91.83;96880.72;5070640;28;20425;-65
2021/12/27 00:52:32;;;;;;;52.97;27.77;;;;;;;3.05;91.61;96870.75;5067358;28;20274;-64
2021/12/27 00:54:59;;;;;;;55.90;29.53;;;;;;;3.07;92.29;96865.63;5067510;28;20189;-64
2021/12/27 00:57:26;;;;;;;51.93;29.03;;;;;;;3.03;91.93;96858.88;5067776;28;20198;-67
2021/12/27 00:59:53;;;;;;;44.23;28.20;;;;;;;3.08;91.88;96868.13;5067263;28;20196;-65
2021/12/27 01:02:20;;;;;;;44.90;26.53;;;;;;;3.03;92.52;96867.38;5068704;28;20192;-63
2021/12/27 01:04:48;;;;;;;47.57;27.43;;;;;;;3.03;92.33;96859.69;5079481;28;20208;-59
2021/12/27 01:07:16;;;;;;;49.80;28.20;;;;;;;3.01;92.28;96858.06;5080990;28;20209;-58
2021/12/27 01:15:10;;;;;;;53.07;26.30;;;;;;;2.95;93.85;96861.56;5072628;28;20199;-59
2021/12/27 01:17:39;;;;;;;40.93;25.53;;;;;;;2.87;93.83;96849.78;5072197;28;20209;-63
2021/12/27 01:20:12;;;;;;;46.30;27.43;;;;;;;2.97;93.20;96864.94;5073836;28;20202;-57
2021/12/27 01:22:39;;;;;;;45.47;27.70;;;;;;;3.00;93.03;96858.91;5073696;28;20199;-66
2021/12/27 01:25:07;;;;;;;48.30;27.90;;;;;;;2.99;93.06;96872.56;5073027;28;20200;-63
2021/12/27 01:27:35;;;;;;;51.70;32.40;;;;;;;3.01;92.96;96871.66;5067431;28;20228;-58
2021/12/27 01:30:05;;;;;;;58.23;34.67;;;;;;;3.05;93.43;96867.38;5082240;28;20188;-56
2021/12/27 01:32:37;;;;;;;61.53;35.67;;;;;;;2.99;93.10;96850.41;5067788;28;20628;-63
2021/12/27 01:35:05;;;;;;;65.17;37.00;;;;;;;3.07;92.69;96835.75;5066733;28;20213;-65
2021/12/27 01:37:32;;;;;;;60.93;34.20;;;;;;;2.91;93.35;96830.97;5067022;28;20229;-63
2021/12/27 01:39:59;;;;;;;58.30;33.57;;;;;;;2.85;93.77;96844.72;5066638;28;20246;-60
2021/12/27 01:42:27;;;;;;;57.73;34.57;;;;;;;2.88;93.95;96848.94;5066606;28;20657;-64
2021/12/27 01:44:54;;;;;;;56.30;33.73;;;;;;;2.90;93.73;96853.16;5066811;28;20667;-62
2021/12/27 01:47:21;;;;;;;53.53;33.00;;;;;;;2.96;93.95;96859.84;5065879;28;20213;-68
2021/12/27 01:49:48;;;;;;;52.70;31.37;;;;;;;2.99;93.41;96862.34;5067265;28;20201;-68
2021/12/27 01:52:15;;;;;;;50.50;31.03;;;;;;;2.96;93.99;96864.97;5066082;28;20181;-62
2021/12/27 01:54:42;;;;;;;48.87;28.63;;;;;;;2.85;94.29;96851.53;5066687;28;20196;-62
2021/12/27 01:57:09;;;;;;;45.57;29.53;;;;;;;2.83;96.48;96850.72;5065978;28;20205;-62
2021/12/27 01:59:36;;;;;;;46.83;27.87;;;;;;;2.89;96.10;96843.78;5066752;28;20208;-63
2021/12/27 02:02:03;;;;;;;41.13;26.27;;;;;;;2.92;96.10;96837.78;5066503;28;20221;-59
2021/12/27 02:04:31;;;;;;;44.13;25.13;;;;;;;2.91;95.82;96834.38;5066014;28;20200;-59
2021/12/27 02:06:58;;;;;;;37.43;24.67;;;;;;;2.95;95.64;96841.09;5066819;28;20181;-63
2021/12/27 02:09:35;;;;;;;41.50;25.77;;;;;;;2.98;95.33;96835.94;5065694;28;20196;-61
2021/12/27 02:12:02;;;;;;;40.40;24.53;;;;;;;3.03;94.74;96836.69;5066561;28;20184;-55
2021/12/27 02:14:29;;;;;;;34.73;21.40;;;;;;;2.98;94.94;96830.81;5066141;28;20530;-56
2021/12/27 02:16:56;;;;;;;37.47;22.27;;;;;;;3.04;95.44;96828.16;5066046;28;20201;-56
2021/12/27 02:19:23;;;;;;;33.03;19.97;;;;;;;3.03;94.38;96825.63;5067434;28;20251;-59
2021/12/27 02:21:50;;;;;;;29.93;19.57;;;;;;;3.00;94.33;96818.00;5069926;28;20654;-59
2021/12/27 02:24:17;;;;;;;31.13;19.37;;;;;;;3.02;94.59;96821.38;5070502;28;20196;-68
2021/12/27 02:26:45;;;;;;;29.60;19.27;;;;;;;3.02;94.55;96819.66;5067794;28;20205;-63
2021/12/27 02:29:12;;;;;;;32.83;18.87;;;;;;;3.04;94.82;96817.91;5070374;28;20248;-64
2021/12/27 02:31:40;;;;;;;32.23;18.23;;;;;;;3.02;95.04;96813.69;5069647;28;20197;-57
2021/12/27 02:34:10;;;;;;;27.90;18.37;;;;;;;3.08;94.76;96827.22;5069830;28;20292;-58
2021/12/27 02:36:37;;;;;;;27.77;17.20;;;;;;;3.21;95.03;96827.81;5069826;28;20612;-58
2021/12/27 02:39:05;;;;;;;25.67;16.77;;;;;;;3.19;94.95;96827.81;5069329;28;20224;-65
2021/12/27 02:41:32;;;;;;;27.50;17.03;;;;;;;3.26;95.22;96816.59;5070398;28;20266;-60
2021/12/27 02:43:59;;;;;;;24.83;15.17;;;;;;;3.29;95.26;96813.13;5069166;28;20667;-68
2021/12/27 02:46:26;;;;;;;24.30;15.97;;;;;;;3.39;94.99;96811.22;5070580;28;20533;-68
2021/12/27 02:48:53;;;;;;;29.03;18.73;;;;;;;3.39;94.26;96824.00;5070185;28;20282;-69
2021/12/27 02:51:20;;;;;;;26.27;17.87;;;;;;;3.32;93.73;96815.63;5072749;28;20208;-67
2021/12/27 02:53:49;;;;;;;27.80;18.07;;;;;;;3.48;93.79;96837.47;5073310;28;20198;-66
2021/12/27 02:56:17;;;;;;;30.53;20.47;;;;;;;3.46;92.98;96833.25;5069464;28;20201;-67
2021/12/27 02:58:46;;;;;;;38.37;22.90;;;;;;;3.24;92.39;96843.94;5070066;28;20201;-66
2021/12/27 03:01:18;;;;;;;41.73;24.43;;;;;;;3.20;91.96;96838.91;5068948;28;20239;-64
2021/12/27 03:03:46;;;;;;;38.07;23.73;;;;;;;3.18;92.76;96830.41;5069889;28;20193;-65
2021/12/27 03:06:13;;;;;;;33.27;20.90;;;;;;;3.10;91.68;96830.59;5067761;28;20201;-60
2021/12/27 03:08:41;;;;;;;30.17;20.07;;;;;;;3.05;93.14;96829.00;5069255;28;20193;-65
2021/12/27 03:11:10;;;;;;;30.87;21.00;;;;;;;3.02;92.69;96821.38;5068235;28;20203;-58
2021/12/27 03:13:40;;;;;;;31.60;20.60;;;;;;;2.99;93.28;96826.53;5068692;28;20675;-64
2021/12/27 03:16:10;;;;;;;33.67;19.97;;;;;;;2.91;93.05;96820.72;5069555;28;20266;-62
2021/12/27 03:18:41;;;;;;;32.73;20.67;;;;;;;3.00;92.79;96823.97;5068485;28;20196;-61
2021/12/27 03:21:09;;;;;;;34.30;20.47;;;;;;;3.04;92.45;96825.59;5069054;28;20603;-60
2021/12/27 03:23:39;;;;;;;35.00;21.63;;;;;;;3.15;91.58;96822.81;5077388;28;20706;-61
2021/12/27 03:26:07;;;;;;;36.17;21.23;;;;;;;3.15;91.01;96812.59;5088874;28;20196;-61
2021/12/27 03:28:34;;;;;;;32.93;21.30;;;;;;;3.20;90.93;96806.50;5089253;28;20729;-59
2021/12/27 03:31:03;;;;;;;32.80;20.00;;;;;;;3.23;90.32;96811.56;5086932;28;20203;-61
2021/12/27 03:33:31;;;;;;;33.53;19.20;;;;;;;3.09;90.43;96817.84;5089244;28;20229;-56
2021/12/27 03:36:03;;;;;;;32.20;20.27;;;;;;;2.98;90.47;96806.97;5088546;28;20195;-60
2021/12/27 03:38:38;;;;;;;30.87;19.70;;;;;;;2.99;90.91;96822.25;5088993;28;20742;-60
2021/12/27 03:41:09;;;;;;;34.03;20.70;;;;;;;3.04;90.97;96830.72;5089230;28;20597;-64
2021/12/27 03:43:36;;;;;;;36.47;20.50;;;;;;;2.86;91.23;96815.72;5088693;28;20192;-67
2021/12/27 03:46:04;;;;;;;30.27;20.13;;;;;;;2.94;91.40;96813.84;5089265;28;20683;-65
2021/12/27 03:48:31;;;;;;;33.23;19.93;;;;;;;2.99;91.59;96808.63;5088139;28;20195;-65
2021/12/27 03:50:58;;;;;;;39.63;22.67;;;;;;;2.98;91.27;96806.97;5089122;28;20189;-67
2021/12/27 03:53:25;;;;;;;38.07;22.53;;;;;;;2.87;91.89;96811.44;5088184;28;20713;-64
2021/12/27 03:55:52;;;;;;;40.90;24.70;;;;;;;2.65;93.36;96811.00;5087370;28;20205;-64
2021/12/27 03:58:27;;;;;;;43.23;28.03;;;;;;;2.56;93.88;96803.50;5088730;28;20200;-59
2021/12/27 04:03:22;;;;;;;37.37;21.60;;;;;;;2.66;95.92;96797.34;5088919;28;20203;-64
2021/12/27 04:06:07;;;;;;;32.60;21.73;;;;;;;2.85;95.62;96808.06;5087943;28;20200;-60
2021/12/27 04:08:53;;;;;;;38.77;22.70;;;;;;;2.86;96.12;96820.84;5088407;28;20226;-68
2021/12/27 04:11:39;;;;;;;33.60;22.00;;;;;;;2.95;95.83;96817.25;5088489;28;20219;-66
2021/12/27 04:14:25;;;;;;;36.77;23.47;;;;;;;3.03;94.96;96821.34;5087675;28;20594;-57
2021/12/27 04:16:53;;;;;;;53.07;30.37;;;;;;;3.03;94.09;96817.97;5088630;28;20602;-64
2021/12/27 04:19:21;;;;;;;43.63;26.03;;;;;;;2.90;93.06;96822.47;5087916;28;20690;-65
2021/12/27 04:21:48;;;;;;;41.63;25.40;;;;;;;2.87;93.57;96822.50;5088247;28;20324;-56
2021/12/27 04:24:15;;;;;;;39.43;24.13;;;;;;;2.80;92.70;96813.28;5088343;28;20659;-64
2021/12/27 04:26:43;;;;;;;35.40;22.30;;;;;;;2.63;93.95;96824.69;5087628;28;20292;-62
2021/12/27 04:29:10;;;;;;;35.70;21.57;;;;;;;2.47;94.38;96830.06;5087237;28;20192;-58
2021/12/27 04:31:37;;;;;;;32.80;20.33;;;;;;;2.51;94.72;96830.88;5087549;28;20337;-56
2021/12/27 04:34:04;;;;;;;34.07;20.03;;;;;;;2.54;95.48;96823.13;5088387;28;20200;-58
2021/12/27 04:36:31;;;;;;;32.30;20.43;;;;;;;2.62;96.15;96828.13;5087341;28;20185;-56
2021/12/27 04:38:58;;;;;;;31.93;19.73;;;;;;;2.67;95.36;96833.97;5088067;28;20185;-55
2021/12/27 04:41:25;;;;;;;34.17;19.97;;;;;;;2.74;95.51;96836.38;5087457;28;20742;-56
2021/12/27 04:43:52;;;;;;;29.53;19.40;;;;;;;2.84;95.72;96827.69;5087116;28;20184;-61
2021/12/27 04:46:19;;;;;;;27.17;18.03;;;;;;;2.95;95.17;96823.19;5087842;28;20233;-56
2021/12/27 04:48:51;;;;;;;32.67;18.63;;;;;;;2.95;95.24;96815.53;5085570;28;20728;-58
2021/12/27 04:51:20;;;;;;;31.37;19.07;;;;;;;3.05;94.11;96827.25;5088064;28;20199;-56
2021/12/27 04:53:49;;;;;;;31.37;19.83;;;;;;;3.15;94.43;96830.50;5087112;28;20198;-56
2021/12/27 04:56:16;;;;;;;29.37;19.00;;;;;;;3.16;93.89;96834.72;5087838;28;20192;-57
2021/12/27 04:58:45;;;;;;;33.80;19.53;;;;;;;3.09;93.20;96835.72;5087505;28;20184;-56
2021/12/27 05:01:16;;;;;;;28.93;19.50;;;;;;;3.10;92.28;96840.81;5087004;28;20200;-64
2021/12/27 05:03:43;;;;;;;35.47;21.57;;;;;;;3.13;92.46;96834.81;5087853;28;20269;-57
2021/12/27 05:06:13;;;;;;;40.03;23.23;;;;;;;3.04;92.06;96830.72;5084217;28;20204;-56
2021/12/27 05:08:41;;;;;;;34.33;21.40;;;;;;;2.86;93.18;96831.06;5067486;28;20196;-56
2021/12/27 05:11:08;;;;;;;30.37;19.60;;;;;;;2.76;94.38;96828.72;5068965;28;20691;-56
2021/12/27 05:13:36;;;;;;;31.33;19.30;;;;;;;2.84;93.78;96837.94;5087191;28;20686;-61
2021/12/27 05:16:04;;;;;;;34.90;20.80;;;;;;;2.94;93.83;96836.88;5087058;28;20670;-64
2021/12/27 05:18:31;;;;;;;32.73;20.60;;;;;;;2.99;93.64;96837.63;5082253;28;20201;-67
2021/12/27 05:20:58;;;;;;;38.43;24.13;;;;;;;3.02;92.72;96835.00;5067470;28;20201;-68
2021/12/27 05:23:26;;;;;;;36.47;23.00;;;;;;;2.99;92.59;96835.06;5066071;28;20217;-57
2021/12/27 05:25:54;;;;;;;34.93;22.27;;;;;;;2.90;93.27;96836.97;5065912;28;20198;-61
2021/12/27 05:28:21;;;;;;;42.57;24.87;;;;;;;2.99;93.98;96827.38;5066400;28;20204;-62
2021/12/27 05:30:51;;;;;;;35.00;22.60;;;;;;;3.10;93.75;96835.69;5066848;28;20206;-63
2021/12/27 05:33:19;;;;;;;38.83;23.13;;;;;;;3.01;93.86;96833.31;5066810;28;20236;-59
2021/12/27 05:35:46;;;;;;;41.80;25.70;;;;;;;3.04;93.33;96828.16;5066559;28;20296;-58
2021/12/27 05:38:14;;;;;;;50.13;30.00;;;;;;;3.13;93.05;96829.69;5081687;28;20239;-65
2021/12/27 05:40:41;;;;;;;47.97;30.60;;;;;;;3.19;92.46;96832.94;5086298;28;20594;-61
2021/12/27 05:43:09;;;;;;;42.87;27.73;;;;;;;3.16;92.06;96822.78;5087247;28;20242;-58
2021/12/27 05:45:37;;;;;;;43.57;27.07;;;;;;;3.17;91.36;96827.00;5086361;28;20207;-66
2021/12/27 05:48:06;;;;;;;42.13;25.97;;;;;;;3.19;91.07;96814.22;5083977;28;20204;-60
2021/12/27 05:50:34;;;;;;;41.00;25.20;;;;;;;3.18;90.60;96833.81;5083406;28;20196;-62
2021/12/27 05:53:02;;;;;;;45.27;28.97;;;;;;;3.24;91.19;96826.03;5083776;28;20185;-60
2021/12/27 05:55:29;;;;;;;50.43;30.83;;;;;;;3.21;90.74;96820.94;5090778;28;20200;-58
2021/12/27 05:57:57;;;;;;;55.20;33.30;;;;;;;3.10;90.71;96814.38;5089602;28;20192;-64
2021/12/27 06:00:24;;;;;;;60.77;32.60;;;;;;;3.27;90.04;96817.44;5090512;28;20203;-64
2021/12/27 06:02:53;;;;;;;59.30;34.47;;;;;;;3.33;90.10;96821.59;5089628;28;20224;-61
2021/12/27 06:05:23;;;;;;;61.37;34.77;;;;;;;3.23;89.52;96823.50;5090133;28;20223;-63
2021/12/27 06:07:50;;;;;;;55.67;32.97;;;;;;;3.24;90.03;96833.69;5089941;28;20206;-61
2021/12/27 06:10:19;;;;;;;56.10;33.53;;;;;;;3.36;89.75;96832.59;5089774;28;20247;-61
2021/12/27 06:12:47;;;;;;;60.27;33.27;;;;;;;3.29;89.55;96837.00;5090066;28;20195;-57
2021/12/27 06:15:14;;;;;;;55.40;34.57;;;;;;;3.15;89.43;96833.88;5089299;28;20302;-58
2021/12/27 06:17:42;;;;;;;68.73;39.67;;;;;;;3.10;89.35;96843.38;5087866;28;20557;-58
2021/12/27 06:20:13;;;;;;;73.50;40.50;;;;;;;3.03;91.09;96844.34;5089565;28;20192;-59
2021/12/27 06:22:47;;;;;;;59.70;36.30;;;;;;;3.00;90.63;96839.31;5086694;28;20344;-61
2021/12/27 06:25:15;;;;;;;62.57;37.10;;;;;;;2.93;90.69;96842.00;5086974;28;20200;-63
2021/12/27 06:27:42;;;;;;;68.80;40.70;;;;;;;2.84;91.63;96853.28;5086711;28;20238;-65
2021/12/27 06:30:14;;;;;;;61.57;37.10;;;;;;;2.75;91.42;96848.31;5089905;28;20188;-58
2021/12/27 06:32:42;;;;;;;60.50;35.50;;;;;;;2.70;92.48;96855.22;5085965;28;20231;-60
2021/12/27 06:35:11;;;;;;;52.17;32.43;;;;;;;2.70;92.73;96857.75;5089840;28;20695;-65
2021/12/27 06:37:40;;;;;;;47.77;29.60;;;;;;;2.64;93.13;96851.94;5088376;28;20221;-55
2021/12/27 06:40:10;;;;;;;47.00;27.63;;;;;;;2.70;93.11;96857.75;5088854;28;20188;-57
2021/12/27 06:42:37;;;;;;;47.03;28.43;;;;;;;2.70;93.33;96870.53;5088396;28;20574;-58
2021/12/27 06:45:05;;;;;;;41.77;24.70;;;;;;;2.73;93.06;96867.94;5088469;28;20215;-56
2021/12/27 06:47:33;;;;;;;43.13;26.37;;;;;;;2.73;93.98;96865.41;5087795;28;20624;-57
2021/12/27 06:50:00;;;;;;;38.97;24.57;;;;;;;2.70;94.06;96846.72;5086761;28;20279;-66
2021/12/27 06:52:27;;;;;;;40.67;24.57;;;;;;;2.81;94.08;96857.56;5089176;28;20196;-61
2021/12/27 06:54:54;;;;;;;45.13;25.07;;;;;;;2.88;93.61;96849.78;5088102;28;20188;-68
2021/12/27 06:57:30;;;;;;;38.83;24.03;;;;;;;2.96;93.52;96865.81;5088182;28;20199;-67
2021/12/27 06:59:58;;;;;;;52.13;27.60;;;;;;;3.13;94.15;96871.44;5088374;28;20249;-62
2021/12/27 07:02:26;;;;;;;51.57;29.17;;;;;;;3.30;93.01;96856.59;5088296;28;20216;-61
2021/12/27 07:04:53;;;;;;;44.23;26.20;;;;;;;3.32;92.55;96854.00;5088792;28;20632;-58
2021/12/27 07:07:20;;;;;;;49.87;31.27;;;;;;;3.51;92.19;96851.91;5084063;28;20196;-62
2021/12/27 07:09:47;;;;;;;38.33;25.30;;;;;;;3.79;91.48;96850.44;5088172;28;20295;-65
2021/12/27 07:12:15;;;;;;;58.63;30.83;;;;;;;3.90;91.22;96851.88;5088560;28;20192;-61
2021/12/27 07:14:43;;;;;;;34.63;22.00;;;;;;;3.99;90.94;96845.72;5088587;28;20197;-62
2021/12/27 07:17:10;;;;;;;34.63;22.23;;;;;;;4.20;90.71;96844.34;5084901;28;20665;-64
2021/12/27 07:19:37;;;;;;;31.17;20.30;;;;;;;4.43;90.02;96847.22;5075724;28;20194;-63
2021/12/27 07:22:04;;;;;;;31.93;21.50;;;;;;;4.51;89.42;96837.59;5075631;28;20734;-66
2021/12/27 07:24:31;;;;;;;28.20;19.20;;;;;;;4.65;88.45;96827.81;5088172;28;20209;-64
2021/12/27 07:26:58;;;;;;;43.20;25.30;;;;;;;4.86;88.82;96833.22;5089398;28;20204;-60
2021/12/27 07:29:26;;;;;;;47.03;28.73;;;;;;;5.04;87.21;96834.47;5085231;28;20661;-61
2021/12/27 07:31:53;;;;;;;45.40;29.43;;;;;;;5.14;87.44;96827.34;5075997;28;20602;-59
2021/12/27 07:34:24;;;;;;;42.50;29.13;;;;;;;5.15;86.66;96813.63;5068727;28;20298;-68
2021/12/27 07:36:53;;;;;;;36.77;25.27;;;;;;;5.23;87.00;96817.66;5067516;28;20722;-63
2021/12/27 07:39:21;;;;;;;41.70;27.70;;;;;;;5.41;86.78;96817.13;5068612;28;20195;-63
2021/12/27 07:41:49;;;;;;;37.70;25.63;;;;;;;5.51;86.51;96812.56;5086523;28;20663;-61
2021/12/27 07:44:17;;;;;;;38.63;25.57;;;;;;;5.64;85.33;96824.16;5104231;28;20225;-63
2021/12/27 07:46:46;;;;;;;35.83;23.73;;;;;;;5.66;86.14;96832.66;5076793;28;20594;-67
2021/12/27 07:49:15;;;;;;;38.83;26.60;;;;;;;5.76;85.83;96836.63;5068132;28;20255;-59
2021/12/27 07:51:43;;;;;;;37.67;26.33;;;;;;;5.86;84.83;96821.81;5067521;28;20206;-59
2021/12/27 07:54:11;;;;;;;49.53;27.57;;;;;;;5.90;84.46;96826.81;5067921;28;20195;-57
2021/12/27 07:56:38;;;;;;;44.20;29.07;;;;;;;5.95;85.57;96818.97;5069924;28;20195;-58
2021/12/27 07:59:05;;;;;;;45.80;30.13;;;;;;;6.11;85.02;96826.13;5086545;28;20213;-57
2021/12/27 08:01:34;;;;;;;44.73;27.97;;;;;;;6.19;85.04;96834.44;5088402;28;20664;-56
2021/12/27 08:04:03;;;;;;;44.77;30.20;;;;;;;6.35;84.58;96838.19;5078549;28;20249;-58
2021/12/27 08:06:31;;;;;;;45.53;29.23;;;;;;;6.45;84.03;96834.44;5086058;28;20214;-57
2021/12/27 08:08:58;;;;;;;40.83;27.20;;;;;;;6.55;83.09;96827.28;5087961;28;20199;-58
2021/12/27 08:11:26;;;;;;;40.57;24.83;;;;;;;6.65;83.63;96823.50;5085708;28;20209;-59
2021/12/27 08:13:54;;;;;;;39.87;25.50;;;;;;;6.74;83.02;96815.44;5088755;28;20264;-58
2021/12/27 08:16:24;;;;;;;33.47;20.97;;;;;;;6.84;82.93;96808.28;5086344;28;20199;-57
2021/12/27 08:18:53;;;;;;;33.13;19.43;;;;;;;6.62;80.68;96761.84;5082197;28;20208;-63
2021/12/27 08:21:23;;;;;;;30.63;19.83;;;;;;;7.00;81.76;96812.81;5082108;28;20707;-59
2021/12/27 08:24:29;;;;;;;30.77;19.47;;;;;;;7.09;80.59;96811.66;5072047;28;20633;-64
2021/12/27 08:27:50;;;;;;;31.70;19.90;;;;;;;7.11;80.97;96817.59;5074560;28;20708;-65
2021/12/27 08:31:11;;;;;;;37.17;20.90;;;;;;;7.10;81.63;96808.19;5086278;28;20184;-63
2021/12/27 08:34:32;;;;;;;32.90;20.57;;;;;;;7.11;81.73;96805.53;5081571;28;20199;-62
2021/12/27 08:37:52;;;;;;;40.03;24.63;;;;;;;7.05;81.82;96792.03;5086329;28;20232;-65
2021/12/27 08:41:13;;;;;;;47.20;28.70;;;;;;;7.01;82.06;96798.19;5086741;28;20211;-67
2021/12/27 08:44:34;;;;;;;42.40;29.10;;;;;;;7.05;82.02;96808.34;5101480;28;20319;-61
2021/12/27 08:47:54;;;;;;;44.17;27.60;;;;;;;7.14;81.38;96807.19;5086162;28;20301;-58
2021/12/27 08:51:15;;;;;;;43.23;30.13;;;;;;;7.15;81.57;96796.81;5085728;28;20720;-58
2021/12/27 08:54:36;;;;;;;63.67;42.47;;;;;;;7.27;81.13;96792.97;5067728;28;20228;-61
2021/12/27 08:57:56;;;;;;;45.93;31.30;;;;;;;7.39;81.24;96793.34;5086627;28;20689;-58
2021/12/27 09:01:17;;;;;;;54.30;34.73;;;;;;;7.42;80.21;96791.56;5086759;28;20219;-60
2021/12/27 09:04:37;;;;;;;45.20;30.83;;;;;;;7.60;80.09;96809.75;5070250;28;20231;-63
2021/12/27 09:07:58;;;;;;;54.97;32.17;;;;;;;7.73;80.21;96815.28;5073879;28;20228;-59
2021/12/27 09:11:19;;;;;;;44.60;30.30;;;;;;;7.95;79.16;96798.94;5086745;28;20671;-62
2021/12/27 09:14:00;;;;;;;36.90;24.20;;;;;;;8.13;78.88;96784.44;5086632;28;20180;-59
2021/12/27 09:16:44;;;;;;;30.70;22.23;;;;;;;8.15;77.75;96793.81;5086257;28;20223;-60
2021/12/27 09:19:12;;;;;;;47.57;32.97;;;;;;;8.19;78.27;96782.47;5076265;28;20219;-61
2021/12/27 09:21:39;;;;;;;30.70;19.23;;;;;;;8.20;78.02;96781.53;5065251;28;20189;-61
2021/12/27 09:24:07;;;;;;;29.27;19.30;;;;;;;8.30;76.99;96781.22;5065012;28;20232;-62
2021/12/27 09:27:14;;;;;;;27.97;17.00;;;;;;;8.39;77.56;96788.59;5073926;28;20197;-59
2021/12/27 09:30:35;;;;;;;21.73;14.13;;;;;;;8.48;76.76;96777.88;5081688;28;20599;-58
2021/12/27 09:33:55;;;;;;;23.37;14.63;;;;;;;8.56;76.68;96770.66;5078642;28;20205;-57
2021/12/27 09:36:36;;;;;;;29.33;17.27;;;;;;;8.67;76.23;96773.63;5076477;28;20228;-64
2021/12/27 09:39:05;;;;;;;25.97;18.37;;;;;;;8.66;76.14;96771.94;5079321;28;20212;-58
2021/12/27 09:41:32;;;;;;;29.53;19.57;;;;;;;8.84;76.41;96771.16;5086647;28;20220;-60
2021/12/27 09:43:59;;;;;;;24.33;17.53;;;;;;;9.04;75.57;96763.38;5069396;28;20224;-57
2021/12/27 09:46:27;;;;;;;24.47;16.70;;;;;;;9.15;75.20;96771.47;5075841;28;20728;-56
2021/12/27 09:48:57;;;;;;;21.67;14.67;;;;;;;9.23;74.47;96772.00;5067854;28;20720;-58
2021/12/27 09:51:26;;;;;;;23.97;18.13;;;;;;;9.25;74.95;96775.34;5075630;28;20212;-60
2021/12/27 09:54:33;;;;;;;21.73;15.57;;;;;;;9.26;74.79;96774.44;5071567;28;20212;-69
2021/12/27 09:57:40;;;;;;;29.70;18.63;;;;;;;9.22;75.02;96769.47;5084903;28;20200;-64
2021/12/27 10:00:42;;;;;;;32.13;18.93;;;;;;;9.16;75.49;96773.16;5085421;28;20282;-62
2021/12/27 10:03:11;;;;;;;36.17;22.43;;;;;;;9.16;75.55;96765.41;5085634;28;20228;-58
2021/12/27 10:05:39;;;;;;;27.33;18.53;;;;;;;8.93;75.95;96763.84;5085356;28;20254;-59
2021/12/27 10:08:08;;;;;;;31.30;17.63;;;;;;;8.69;77.82;96756.31;5085217;28;20204;-57
2021/12/27 10:10:36;;;;;;;70.33;40.30;;;;;;;8.69;78.11;96748.59;5085697;28;20267;-59
2021/12/27 10:13:08;;;;;;;32.00;21.27;;;;;;;8.93;77.73;96742.34;5076721;28;20196;-62
2021/12/27 10:15:39;;;;;;;30.53;20.70;;;;;;;9.07;76.98;96737.41;5080669;28;20204;-59
2021/12/27 10:18:10;;;;;;;37.53;22.47;;;;;;;9.17;77.13;96723.16;5079327;28;20731;-55
2021/12/27 10:20:39;;;;;;;33.00;19.43;;;;;;;9.34;76.49;96736.16;5069117;28;20694;-58
2021/12/27 10:23:07;;;;;;;26.83;17.40;;;;;;;9.22;77.13;96716.06;5074235;28;20315;-60
2021/12/27 10:25:35;;;;;;;28.53;17.63;;;;;;;9.15;77.04;96726.75;5075759;28;20594;-68
2021/12/27 10:28:10;;;;;;;24.40;17.00;;;;;;;9.17;77.33;96712.81;5079377;28;20193;-61
2021/12/27 10:30:45;;;;;;;27.50;17.93;;;;;;;9.24;76.87;96706.50;5069993;28;20193;-62
2021/12/27 10:33:24;;;;;;;25.13;16.93;;;;;;;9.11;77.50;96705.34;5077884;28;20719;-58
2021/12/27 10:35:58;;;;;;;26.60;17.60;;;;;;;9.11;77.64;96707.13;5074865;28;20204;-54
2021/12/27 10:38:37;;;;;;;25.77;18.07;;;;;;;9.12;78.09;96704.47;5072115;28;20268;-57
2021/12/27 10:41:10;;;;;;;24.33;17.80;;;;;;;8.98;77.93;96705.06;5067516;28;20204;-65
2021/12/27 10:43:56;;;;;;;31.77;19.17;;;;;;;8.93;80.57;96703.59;5072071;28;20287;-58
2021/12/27 10:46:41;;;;;;;27.90;18.97;;;;;;;8.76;80.03;96711.25;5075504;28;20761;-59
2021/12/27 10:49:08;;;;;;;31.97;19.57;;;;;;;8.85;79.55;96700.53;5068136;28;20526;-58
2021/12/27 10:51:36;;;;;;;28.87;18.90;;;;;;;9.05;79.21;96697.88;5071322;28;20291;-61
2021/12/27 10:54:16;;;;;;;29.83;19.67;;;;;;;9.26;78.37;96693.50;5078850;28;20204;-65
2021/12/27 10:56:50;;;;;;;36.83;22.70;;;;;;;9.32;78.50;96685.44;5076270;28;20201;-66
2021/12/27 10:59:20;;;;;;;33.10;22.90;;;;;;;9.34;78.07;96668.97;5069019;28;20227;-60
2021/12/27 11:01:49;;;;;;;34.83;22.73;;;;;;;9.54;77.88;96670.63;5066920;28;20291;-59
2021/12/27 11:04:18;;;;;;;40.93;24.70;;;;;;;9.66;77.45;96665.72;5068109;28;20907;-63
2021/12/27 11:06:46;;;;;;;39.77;24.50;;;;;;;9.78;77.39;96659.94;5069046;28;20201;-59
2021/12/27 11:09:16;;;;;;;40.93;24.17;;;;;;;9.87;76.89;96648.28;5066489;28;20201;-56
2021/12/27 11:11:43;;;;;;;37.90;24.73;;;;;;;9.99;76.80;96658.06;5068698;28;20226;-60
2021/12/27 11:14:10;;;;;;;37.57;22.50;;;;;;;10.10;76.27;96650.63;5049592;28;20691;-60
2021/12/27 11:16:38;;;;;;;45.70;25.63;;;;;;;10.09;75.82;96623.06;5068897;28;20654;-59
2021/12/27 11:19:05;;;;;;;43.97;28.20;;;;;;;10.36;75.49;96647.56;5067284;28;20579;-61
2021/12/27 11:21:36;;;;;;;49.27;29.33;;;;;;;10.53;75.14;96644.13;5068303;28;20205;-62
2021/12/27 11:24:04;;;;;;;49.63;28.77;;;;;;;10.53;75.15;96638.94;5068911;28;20567;-65
2021/12/27 11:26:34;;;;;;;42.87;27.37;;;;;;;10.42;75.31;96629.13;5067878;28;20197;-62
2021/12/27 11:29:15;;;;;;;46.40;25.80;;;;;;;10.58;74.51;96626.56;5069084;28;20666;-58
2021/12/27 11:31:45;;;;;;;35.87;23.27;;;;;;;10.74;74.56;96642.97;5075184;28;20226;-66
2021/12/27 11:34:14;;;;;;;37.00;20.83;;;;;;;10.59;75.38;96644.59;5088561;28;20196;-62
2021/12/27 11:36:45;;;;;;;33.30;21.70;;;;;;;10.66;75.83;96634.78;5088415;28;20228;-68
2021/12/27 11:39:42;;;;;;;28.90;19.87;;;;;;;10.51;75.63;96640.75;5086758;28;20194;-64
2021/12/27 11:42:11;;;;;;;28.27;18.83;;;;;;;10.43;76.53;96632.53;5089350;28;20205;-61
2021/12/27 11:44:54;;;;;;;30.60;19.17;;;;;;;10.40;76.47;96632.72;5087866;28;20741;-61
2021/12/27 11:47:27;;;;;;;31.83;20.33;;;;;;;10.31;76.07;96625.41;5087954;28;20241;-61
2021/12/27 11:49:59;;;;;;;32.80;20.30;;;;;;;10.26;77.22;96630.81;5088582;28;20194;-57
2021/12/27 11:52:32;;;;;;;38.93;24.63;;;;;;;10.27;77.54;96626.47;5085874;28;20575;-64
2021/12/27 11:55:07;;;;;;;31.63;21.20;;;;;;;10.30;76.93;96613.41;5089019;28;20561;-59
2021/12/27 11:57:45;;;;;;;35.60;21.77;;;;;;;10.30;77.05;96632.38;5088114;28;20197;-57